DIRECCIÓN GENERAL DE AERONÁUTICA CIVIL
DIRECCIÓN METEOROLÓGICA DE CHILE
INFORMACIÓN METAR Y TAF

FIR SANTIAGO

Estación: SCSE
METAR SCSE 211900Z 30012KT 9999 FEW020 20/10 Q1017=

TAF SCSE 211630Z 2118/2218 30010KT CAVOK TX20/2118Z TN11/2210Z BECMG 2200/2202 11005KT TEMPO 2206/2212 VRB02KT BKN025 BECMG 2214/2216 30010KT=

Estación: SCER
NIL=

NIL=

Estación: SCRD
METAR SCRD 211900Z 22015KT CAVOK 19/07 Q1019=

TAF SCRD 211630Z 2118/2206 20010KT CAVOK TX19/2118Z TN14/2206Z BECMG 2201/2203 VRB02KT=

Estación: SCVM
METAR SCVM 211900Z 26008KT CAVOK 20/08 Q1019=

TAF SCVM 211630Z 2118/2218 15004KT CAVOK TX19/2118Z TN09/2210Z TEMPO 2119/2124 25012KT SCT030 BECMG 2200/2202 14005KT BECMG 2214/2216 30010KT=

Estación: SCTB
METAR SCTB 211900Z 19005KT 9999 FEW080 20/04 Q1019=

TAF SCTB 211630Z 2118/2206 22010KT 6000 SCT030 BKN090 TX18/2118Z TN12/2206Z BECMG 2120/2122 9999 SCT050 SCT120 BECMG 2122/2124 CAVOK BECMG 2202/2204 VRB02KT=

Estación: SCEL
METAR SCEL 211900Z 23008KT 190V300 9999 FEW040 21/02 Q1018 NOSIG=

TAF SCEL 211630Z 2118/2218 19012KT 9999 SCT030 BKN160 TX18/2119Z TN10/2210Z BECMG 2120/2122 CAVOK BECMG 2200/2202 16005KT TEMPO 2209/2212 VRB02KT 0800 BCFG BKN002 BECMG 2214/2216 19012KT=

Estación: SCSN
METAR SCSN 211900Z 24016KT 9999 FEW020 17/08 Q1020=

TAF SCSN 211630Z 2118/2206 29010KT CAVOK TX18/2118Z TN14/2206Z BECMG 2200/2202 VRB02KT=

Estación: SCRG
METAR SCRG 192000Z 15014KT CAVOK 25/12 Q1013=

TAF SCRG 191629Z 1918/2006 17010KT CAVOK TX25/1918Z TN13/2006Z BECMG 2000/2002 VRB02KT=

Estación: SCIC
METAR SCIC 211900Z 20006KT 9999 BKN040 21/06 Q1019=

TAF COR SCIC 211630Z 2118/2206 20010KT 9999 SCT030 TX17/2118Z TN14/ 2206Z BECMG 2120/2122 CAVOK BECMG 2201/2203 VRB02KT=

Estación: SCCH
METAR SCCH 211900Z 18010KT 9999 FEW047 20/03 Q1021=

TAF SCCH 211630Z 2118/2206 18012KT CAVOK TX20/2118Z TN13/2206Z BECMG 2202/2204 18005KT=

Estación: SCIE
METAR SCIE 211900Z 24017KT 9999 FEW040 18/06 Q1022=

TAF SCIE 211630Z 2118/2218 20006KT 9999 FEW040 TX20/2118Z TN08/2210Z BECMG 2120/2122 23012KT CAVOK BECMG 2200/2202 21006KT BECMG 2214/2216 21015KT=

Estación: SCGE
METAR SCGE 211900Z 20022KT 9999 FEW040 20/02 Q1022=

TAF SCGE 211630Z 2118/2206 20012KT 9999 SCT030 TX19/2118Z TN11/2206Z BECMG 2122/2124 CAVOK BECMG 2202/2204 VRB02KT=


Volver